createdAt,value
2018-12-06T00:00:53.686Z,1.60
2018-12-06T00:03:23.051Z,1.70
2018-12-06T00:05:53.112Z,1.47
2018-12-06T00:08:23.099Z,1.30
2018-12-06T00:10:52.359Z,1.60
2018-12-06T00:13:22.235Z,1.97
2018-12-06T00:15:52.257Z,1.83
2018-12-06T00:18:21.581Z,1.50
2018-12-06T00:20:51.665Z,2.10
2018-12-06T00:23:21.643Z,2.40
2018-12-06T00:25:51.279Z,2.20
2018-12-06T00:28:21.209Z,2.70
2018-12-06T00:30:50.875Z,3.20
2018-12-06T00:33:20.679Z,2.83
2018-12-06T00:35:50.523Z,3.20
2018-12-06T00:38:20.743Z,2.80
2018-12-06T00:40:50.651Z,2.90
2018-12-06T00:43:20.549Z,3.00
2018-12-06T00:45:50.163Z,2.53
2018-12-06T00:48:20.304Z,2.80
2018-12-06T00:50:49.944Z,2.47
2018-12-06T00:53:19.627Z,2.57
2018-12-06T00:55:49.519Z,3.47
2018-12-06T00:58:19.611Z,1.87
2018-12-06T01:00:49.571Z,2.30
2018-12-06T01:03:19.182Z,2.00
2018-12-06T01:05:49.488Z,2.10
2018-12-06T01:08:19.332Z,2.13
2018-12-06T01:10:49.323Z,2.50
2018-12-06T01:13:19.107Z,2.40
2018-12-06T01:15:48.906Z,2.10
2018-12-06T01:18:19.032Z,2.50
2018-12-06T01:20:48.996Z,2.77
2018-12-06T01:23:18.357Z,2.80
2018-12-06T01:25:48.287Z,2.70
2018-12-06T01:28:17.895Z,3.40
2018-12-06T01:30:47.328Z,2.50
2018-12-06T01:33:17.280Z,2.40
2018-12-06T01:35:47.028Z,2.97
2018-12-06T01:38:17.052Z,2.80
2018-12-06T01:40:46.951Z,2.67
2018-12-06T01:43:16.696Z,2.63
2018-12-06T01:45:46.299Z,2.70
2018-12-06T01:48:16.551Z,2.10
2018-12-06T01:50:46.089Z,2.47
2018-12-06T01:53:15.751Z,2.33
2018-12-06T01:55:45.608Z,2.50
2018-12-06T01:58:14.782Z,2.70
2018-12-06T02:00:44.700Z,3.60
2018-12-06T02:03:14.335Z,2.97
2018-12-06T02:05:44.154Z,2.93
2018-12-06T02:08:13.216Z,2.50
2018-12-06T02:10:43.085Z,2.47
2018-12-06T02:13:12.905Z,2.87
2018-12-06T02:15:42.943Z,3.00
2018-12-06T02:18:13.063Z,2.90
2018-12-06T02:20:43.010Z,2.70
2018-12-06T02:23:13.031Z,2.80
2018-12-06T02:25:42.935Z,2.80
2018-12-06T02:28:12.143Z,2.93
2018-12-06T02:30:42.371Z,2.60
2018-12-06T02:33:12.383Z,2.53
2018-12-06T02:35:41.997Z,2.93
2018-12-06T02:38:11.553Z,2.60
2018-12-06T02:40:41.379Z,2.57
2018-12-06T02:43:11.024Z,2.60
2018-12-06T02:45:41.308Z,2.53
2018-12-06T02:48:10.531Z,2.63
2018-12-06T02:50:40.157Z,3.10
2018-12-06T02:53:09.993Z,2.93
2018-12-06T02:55:39.891Z,3.00
2018-12-06T02:58:09.976Z,2.73
2018-12-06T03:00:39.810Z,3.23
2018-12-06T03:03:09.495Z,3.23
2018-12-06T03:05:39.115Z,3.30
2018-12-06T03:08:08.479Z,3.40
2018-12-06T03:10:38.071Z,3.97
2018-12-06T03:13:08.220Z,3.30
2018-12-06T03:15:38.143Z,3.53
2018-12-06T03:18:08.058Z,3.20
2018-12-06T03:20:37.568Z,3.20
2018-12-06T03:23:07.167Z,3.73
2018-12-06T03:25:36.914Z,3.60
2018-12-06T03:28:06.791Z,3.87
2018-12-06T03:30:36.423Z,3.67
2018-12-06T03:33:06.424Z,3.77
2018-12-06T03:35:36.944Z,3.80
2018-12-06T03:38:07.176Z,3.80
2018-12-06T03:40:36.691Z,3.90
2018-12-06T03:43:06.818Z,4.03
2018-12-06T03:45:36.728Z,3.67
2018-12-06T03:48:06.732Z,4.03
2018-12-06T03:50:36.612Z,3.97
2018-12-06T03:53:06.240Z,3.53
2018-12-06T03:55:36.389Z,4.67
2018-12-06T03:58:05.688Z,4.33
2018-12-06T04:00:35.635Z,3.63
2018-12-06T04:03:05.082Z,3.60
2018-12-06T04:05:35.051Z,4.13
2018-12-06T04:08:05.191Z,4.40
2018-12-06T04:10:34.486Z,4.00
2018-12-06T04:13:04.412Z,3.90
2018-12-06T04:15:34.263Z,3.97
2018-12-06T04:18:03.707Z,3.47
2018-12-06T04:20:33.811Z,3.53
2018-12-06T04:23:03.739Z,3.90
2018-12-06T04:25:33.892Z,3.40
2018-12-06T04:28:03.442Z,3.90
2018-12-06T04:30:33.412Z,3.90
2018-12-06T04:33:03.723Z,3.47
2018-12-06T04:35:33.839Z,4.93
2018-12-06T04:38:04.159Z,3.30
2018-12-06T04:40:34.280Z,3.67
2018-12-06T04:43:03.664Z,4.40
2018-12-06T04:45:33.329Z,4.43
2018-12-06T04:48:03.276Z,4.90
2018-12-06T04:50:33.245Z,4.87
2018-12-06T04:53:02.557Z,4.50
2018-12-06T04:55:32.753Z,6.63
2018-12-06T04:58:02.428Z,4.93
2018-12-06T05:00:32.327Z,6.57
2018-12-06T05:03:02.344Z,5.30
2018-12-06T05:05:32.491Z,7.30
2018-12-06T05:08:02.038Z,6.37
2018-12-06T05:10:32.315Z,6.30
2018-12-06T05:13:02.543Z,4.70
2018-12-06T05:15:32.563Z,4.30
2018-12-06T05:18:02.355Z,4.43
2018-12-06T05:20:32.594Z,3.80
2018-12-06T05:23:02.394Z,4.07
2018-12-06T05:25:31.994Z,3.70
2018-12-06T05:28:02.231Z,3.20
2018-12-06T05:30:32.219Z,3.70
2018-12-06T05:33:02.059Z,5.90
2018-12-06T05:35:31.675Z,9.40
2018-12-06T05:38:01.487Z,4.90
2018-12-06T05:40:31.883Z,3.80
2018-12-06T05:43:01.875Z,3.53
2018-12-06T05:45:31.939Z,3.93
2018-12-06T05:48:02.159Z,3.37
2018-12-06T05:50:32.204Z,5.00
2018-12-06T05:53:02.200Z,3.53
2018-12-06T05:55:32.215Z,4.10
2018-12-06T05:58:02.112Z,3.53
2018-12-06T06:00:32.018Z,3.07
2018-12-06T06:03:01.875Z,2.67
2018-12-06T06:05:32.063Z,2.87
2018-12-06T06:08:02.278Z,2.47
2018-12-06T06:10:31.743Z,2.77
2018-12-06T06:13:01.824Z,2.30
2018-12-06T06:15:31.791Z,2.27
2018-12-06T06:18:01.612Z,2.50
2018-12-06T06:20:31.720Z,2.20
2018-12-06T06:23:01.683Z,2.53
2018-12-06T06:25:31.475Z,2.20
2018-12-06T06:28:00.938Z,1.93
2018-12-06T06:30:31.320Z,2.07
2018-12-06T06:33:00.930Z,2.33
2018-12-06T06:35:30.856Z,2.50
2018-12-06T06:38:00.840Z,2.03
2018-12-06T06:40:30.368Z,3.23
2018-12-06T06:43:00.479Z,2.37
2018-12-06T06:45:30.132Z,3.47
2018-12-06T06:48:00.047Z,2.03
2018-12-06T06:50:29.979Z,2.50
2018-12-06T06:52:59.923Z,2.67
2018-12-06T06:55:29.583Z,2.90
2018-12-06T06:57:59.892Z,2.93
2018-12-06T07:00:30.083Z,2.47
2018-12-06T07:02:59.666Z,3.17
2018-12-06T07:05:29.113Z,3.30
2018-12-06T07:07:58.659Z,3.37
2018-12-06T07:10:28.356Z,3.00
2018-12-06T07:12:58.283Z,3.47
2018-12-06T07:15:28.369Z,3.70
2018-12-06T07:17:58.531Z,3.10
2018-12-06T07:20:28.384Z,3.13
2018-12-06T07:22:57.546Z,3.30
2018-12-06T07:25:27.523Z,2.90
2018-12-06T07:27:57.925Z,3.10
2018-12-06T07:30:27.265Z,2.97
2018-12-06T07:32:57.596Z,3.67
2018-12-06T07:35:27.744Z,3.17
2018-12-06T07:37:57.470Z,3.00
2018-12-06T07:40:27.320Z,3.30
2018-12-06T07:42:57.565Z,5.07
2018-12-06T07:45:27.571Z,2.60
2018-12-06T07:47:57.567Z,2.87
2018-12-06T07:50:27.769Z,3.77
2018-12-06T07:52:57.529Z,2.20
2018-12-06T07:55:27.447Z,2.50
2018-12-06T07:57:57.363Z,2.43
2018-12-06T08:00:27.048Z,2.10
2018-12-06T08:02:56.259Z,2.20
2018-12-06T08:05:26.135Z,2.90
2018-12-06T08:07:55.695Z,2.30
2018-12-06T08:10:25.663Z,2.53
2018-12-06T08:12:55.526Z,2.77
2018-12-06T08:15:25.331Z,2.10
2018-12-06T08:17:54.927Z,1.90
2018-12-06T08:20:25.227Z,1.67
2018-12-06T08:22:55.058Z,2.53
2018-12-06T08:25:24.916Z,1.60
2018-12-06T08:27:54.482Z,2.13
2018-12-06T08:30:24.902Z,2.00
2018-12-06T08:32:54.303Z,2.07
2018-12-06T08:35:23.877Z,2.07
2018-12-06T08:37:53.485Z,2.70
2018-12-06T08:40:23.748Z,3.07
2018-12-06T08:42:53.867Z,2.80
2018-12-06T08:45:24.075Z,4.97
2018-12-06T08:47:54.161Z,2.27
2018-12-06T08:50:24.403Z,2.67
2018-12-06T08:52:54.488Z,2.40
2018-12-06T08:55:24.430Z,2.47
2018-12-06T08:57:54.429Z,2.30
2018-12-06T09:00:24.705Z,2.63
2018-12-06T09:02:54.612Z,2.77
2018-12-06T09:05:24.928Z,2.60
2018-12-06T09:07:56.120Z,2.53
2018-12-06T09:10:26.387Z,1.83
2018-12-06T09:12:56.265Z,4.03
2018-12-06T09:15:26.327Z,2.00
2018-12-06T09:17:56.243Z,2.23
2018-12-06T09:20:26.127Z,2.17
2018-12-06T09:22:56.171Z,2.27
2018-12-06T09:25:25.227Z,1.73
2018-12-06T09:27:55.307Z,4.40
2018-12-06T09:30:25.503Z,2.03
2018-12-06T09:32:54.823Z,7.67
2018-12-06T09:35:24.515Z,2.90
2018-12-06T09:37:54.615Z,2.40
2018-12-06T09:40:23.880Z,2.27
2018-12-06T09:42:53.943Z,2.80
2018-12-06T09:45:23.867Z,10.10
2018-12-06T09:47:53.835Z,3.90
2018-12-06T09:50:23.368Z,2.80
2018-12-06T09:52:52.571Z,3.53
2018-12-06T09:55:22.811Z,2.53
2018-12-06T09:57:52.731Z,2.53
2018-12-06T10:00:22.635Z,2.80
2018-12-06T10:02:52.333Z,2.50
2018-12-06T10:05:22.227Z,2.67
2018-12-06T10:07:51.907Z,2.47
2018-12-06T10:10:21.829Z,2.20
2018-12-06T10:12:51.370Z,1.80
2018-12-06T10:15:21.492Z,1.83
2018-12-06T10:17:51.707Z,2.77
2018-12-06T10:20:21.959Z,2.00
2018-12-06T10:22:52.011Z,2.23
2018-12-06T10:25:22.159Z,2.53
2018-12-06T10:27:51.775Z,2.20
2018-12-06T10:30:22.081Z,2.90
2018-12-06T10:32:52.229Z,2.17
2018-12-06T10:35:22.233Z,2.03
2018-12-06T10:37:52.168Z,2.10
2018-12-06T10:40:22.040Z,3.07
2018-12-06T10:42:52.070Z,2.73
2018-12-06T10:45:21.840Z,2.30
2018-12-06T10:47:51.683Z,2.53
2018-12-06T10:50:21.303Z,2.63
2018-12-06T10:52:51.503Z,2.00
2018-12-06T10:55:21.597Z,2.07
2018-12-06T10:57:51.255Z,2.57
2018-12-06T11:00:26.463Z,2.67
2018-12-06T11:03:01.452Z,2.20
2018-12-06T11:05:31.528Z,2.07
2018-12-06T11:08:01.183Z,2.00
2018-12-06T11:10:30.879Z,2.20
2018-12-06T11:13:01.168Z,2.10
2018-12-06T11:15:31.208Z,2.10
2018-12-06T11:18:01.263Z,2.30
2018-12-06T11:20:30.919Z,2.20
2018-12-06T11:22:59.939Z,2.40
2018-12-06T11:25:30.281Z,2.27
2018-12-06T11:27:59.785Z,2.43
2018-12-06T11:30:29.551Z,2.10
2018-12-06T11:32:59.356Z,2.17
2018-12-06T11:35:28.963Z,2.77
2018-12-06T11:37:59.183Z,3.17
2018-12-06T11:40:29.207Z,2.23
2018-12-06T11:42:59.103Z,2.37
2018-12-06T11:45:28.911Z,2.77
2018-12-06T11:47:59.255Z,2.40
2018-12-06T11:50:28.809Z,2.00
2018-12-06T11:52:58.863Z,2.10
2018-12-06T11:55:28.643Z,2.23
2018-12-06T11:57:58.862Z,2.57
2018-12-06T12:00:28.184Z,2.33
2018-12-06T12:02:58.131Z,2.30
2018-12-06T12:05:28.425Z,2.50
2018-12-06T12:07:58.201Z,2.47
2018-12-06T12:10:28.139Z,1.97
2018-12-06T12:12:57.327Z,1.83
2018-12-06T12:15:27.375Z,2.90
2018-12-06T12:17:57.070Z,2.20
2018-12-06T12:20:27.288Z,2.20
2018-12-06T12:22:57.263Z,2.10
2018-12-06T12:25:27.148Z,2.73
2018-12-06T12:27:57.012Z,2.33
2018-12-06T12:30:27.051Z,3.67
2018-12-06T12:32:56.967Z,2.43
2018-12-06T12:35:27.304Z,2.43
2018-12-06T12:37:57.203Z,2.37
2018-12-06T12:40:26.678Z,2.63
2018-12-06T12:42:56.496Z,2.57
2018-12-06T12:45:26.519Z,2.70
2018-12-06T12:47:56.408Z,2.63
2018-12-06T12:50:26.312Z,2.87
2018-12-06T12:52:56.486Z,2.73
2018-12-06T12:55:26.279Z,3.20
2018-12-06T12:57:56.027Z,3.03
2018-12-06T13:00:26.131Z,3.07
2018-12-06T13:02:56.355Z,2.80
2018-12-06T13:05:26.771Z,2.47
2018-12-06T13:07:56.663Z,2.57
2018-12-06T13:10:26.663Z,2.97
2018-12-06T13:12:57.031Z,2.30
2018-12-06T13:15:26.596Z,1.77
2018-12-06T13:17:57.323Z,2.23
2018-12-06T13:20:26.975Z,3.00
2018-12-06T13:22:56.859Z,1.90
2018-12-06T13:25:27.259Z,2.40
2018-12-06T13:27:57.005Z,1.93
2018-12-06T13:30:26.932Z,4.90
2018-12-06T13:32:56.624Z,2.10
2018-12-06T13:35:26.861Z,2.40
2018-12-06T13:37:56.815Z,2.13
2018-12-06T13:40:27.095Z,2.30
2018-12-06T13:42:56.842Z,2.03
2018-12-06T13:45:26.730Z,1.63
2018-12-06T13:47:56.930Z,2.27
2018-12-06T13:50:26.501Z,1.90
2018-12-06T13:52:56.653Z,2.20
2018-12-06T13:55:26.393Z,3.07
2018-12-06T13:57:55.575Z,2.30
2018-12-06T14:00:25.660Z,2.07
2018-12-06T14:02:55.504Z,2.70
2018-12-06T14:05:25.587Z,2.27
2018-12-06T14:07:55.891Z,2.60
2018-12-06T14:10:25.831Z,2.33
2018-12-06T14:12:55.853Z,2.10
2018-12-06T14:15:25.512Z,2.53
2018-12-06T14:17:55.259Z,1.80
2018-12-06T14:20:25.211Z,2.43
2018-12-06T14:22:55.176Z,2.37
2018-12-06T14:25:25.479Z,2.43
2018-12-06T14:27:55.559Z,2.40
2018-12-06T14:30:25.926Z,2.77
2018-12-06T14:32:56.328Z,2.30
2018-12-06T14:35:26.239Z,2.73
2018-12-06T14:37:56.015Z,3.00
2018-12-06T14:40:25.719Z,2.97
2018-12-06T14:42:55.286Z,2.57
2018-12-06T14:45:25.375Z,2.57
2018-12-06T14:47:55.199Z,1.80
2018-12-06T14:50:25.399Z,4.70
2018-12-06T14:52:55.083Z,2.40
2018-12-06T14:55:25.267Z,2.63
2018-12-06T14:57:55.526Z,2.67
2018-12-06T15:00:25.071Z,2.37
2018-12-06T15:02:55.079Z,2.20
2018-12-06T15:05:25.395Z,2.57
2018-12-06T15:07:55.530Z,2.50
2018-12-06T15:10:25.835Z,2.30
2018-12-06T15:12:56.151Z,2.30
2018-12-06T15:15:26.546Z,2.13
2018-12-06T15:17:56.296Z,3.97
2018-12-06T15:20:26.212Z,2.87
2018-12-06T15:22:56.112Z,4.57
2018-12-06T15:25:25.960Z,4.03
2018-12-06T15:27:55.483Z,3.10
2018-12-06T15:30:25.144Z,3.90
2018-12-06T15:32:54.956Z,2.43
2018-12-06T15:35:24.547Z,2.60
2018-12-06T15:37:54.919Z,2.30
2018-12-06T15:40:24.804Z,2.97
2018-12-06T15:42:54.927Z,2.93
2018-12-06T15:45:24.827Z,3.13
2018-12-06T15:47:54.535Z,3.07
2018-12-06T15:50:24.652Z,2.43
2018-12-06T15:52:54.475Z,2.77
2018-12-06T15:55:24.288Z,2.47
2018-12-06T15:57:54.402Z,2.90
2018-12-06T16:00:24.311Z,2.93
2018-12-06T16:02:54.835Z,3.23
2018-12-06T16:05:24.744Z,2.80
2018-12-06T16:07:55.211Z,2.60
2018-12-06T16:10:24.811Z,3.63
2018-12-06T16:12:54.575Z,2.90
2018-12-06T16:15:24.507Z,3.10
2018-12-06T16:17:54.735Z,3.00
2018-12-06T16:20:24.615Z,2.87
2018-12-06T16:22:54.770Z,2.73
2018-12-06T16:25:24.667Z,2.80
2018-12-06T16:27:54.795Z,2.70
2018-12-06T16:30:24.720Z,3.03
2018-12-06T16:32:54.928Z,2.77
2018-12-06T16:35:25.371Z,2.70
2018-12-06T16:37:55.207Z,3.20
2018-12-06T16:40:25.395Z,2.97
2018-12-06T16:42:55.412Z,2.90
2018-12-06T16:45:25.412Z,3.30
2018-12-06T16:47:55.735Z,3.63
2018-12-06T16:50:25.884Z,3.70
2018-12-06T16:52:56.043Z,2.93
2018-12-06T16:55:25.879Z,3.40
2018-12-06T16:57:55.683Z,3.93
2018-12-06T17:00:25.531Z,3.47
2018-12-06T17:02:55.123Z,3.47
2018-12-06T17:05:25.343Z,3.53
2018-12-06T17:07:55.320Z,6.67
2018-12-06T17:10:25.199Z,5.93
2018-12-06T17:12:54.879Z,4.73
2018-12-06T17:15:24.700Z,5.10
2018-12-06T17:17:54.513Z,3.43
2018-12-06T17:20:24.651Z,3.67
2018-12-06T17:22:54.762Z,2.90
2018-12-06T17:25:24.398Z,3.10
2018-12-06T17:27:54.668Z,3.00
2018-12-06T17:30:24.987Z,3.40
2018-12-06T17:32:54.343Z,4.00
2018-12-06T17:35:23.776Z,3.27
2018-12-06T17:37:53.804Z,3.60
2018-12-06T17:40:23.908Z,3.30
2018-12-06T17:42:54.055Z,3.97
2018-12-06T17:45:24.276Z,3.97
2018-12-06T17:47:54.291Z,2.70
2018-12-06T17:50:24.668Z,2.57
2018-12-06T17:52:54.525Z,3.00
2018-12-06T17:55:24.723Z,3.37
2018-12-06T17:57:54.376Z,2.73
2018-12-06T18:00:24.579Z,3.40
2018-12-06T18:02:54.140Z,3.17
2018-12-06T18:05:24.205Z,3.80
2018-12-06T18:07:54.515Z,3.30
2018-12-06T18:10:24.381Z,3.60
2018-12-06T18:12:54.067Z,3.83
2018-12-06T18:15:24.510Z,3.87
2018-12-06T18:17:54.996Z,4.23
2018-12-06T18:20:24.883Z,3.40
2018-12-06T18:22:54.830Z,4.30
2018-12-06T18:25:24.893Z,4.70
2018-12-06T18:27:55.067Z,4.30
2018-12-06T18:30:25.383Z,4.23
2018-12-06T18:32:55.351Z,3.80
2018-12-06T18:35:25.725Z,4.10
2018-12-06T18:37:55.148Z,4.63
2018-12-06T18:40:24.940Z,3.93
2018-12-06T18:42:55.247Z,4.40
2018-12-06T18:45:25.816Z,3.43
2018-12-06T18:47:55.688Z,4.90
2018-12-06T18:50:25.843Z,4.33
2018-12-06T18:52:55.488Z,4.17
2018-12-06T18:55:25.643Z,4.37
2018-12-06T18:57:55.964Z,3.87
2018-12-06T19:00:26.059Z,4.00
2018-12-06T19:02:55.859Z,4.00
2018-12-06T19:05:26.013Z,3.73
2018-12-06T19:07:55.699Z,4.20
2018-12-06T19:10:25.751Z,3.97
2018-12-06T19:12:55.657Z,4.00
2018-12-06T19:15:26.092Z,4.20
2018-12-06T19:17:57.176Z,5.13
2018-12-06T19:20:27.355Z,4.10
2018-12-06T19:22:57.388Z,4.43
2018-12-06T19:25:27.135Z,4.87
2018-12-06T19:27:57.488Z,4.63
2018-12-06T19:30:27.298Z,4.73
2018-12-06T19:32:59.349Z,4.40
2018-12-06T19:35:29.064Z,4.77
2018-12-06T19:37:59.560Z,4.63
2018-12-06T19:40:30.025Z,4.10
2018-12-06T19:43:00.048Z,3.80
2018-12-06T19:45:30.259Z,4.23
2018-12-06T19:48:00.276Z,4.23
2018-12-06T19:50:30.480Z,3.90
2018-12-06T19:52:59.883Z,5.03
2018-12-06T19:55:29.693Z,3.93
2018-12-06T19:57:59.408Z,4.80
2018-12-06T20:00:29.757Z,4.80
2018-12-06T20:02:59.587Z,4.67
2018-12-06T20:05:29.348Z,4.67
2018-12-06T20:07:58.979Z,4.50
2018-12-06T20:10:29.416Z,4.80
2018-12-06T20:12:59.584Z,4.80
2018-12-06T20:15:30.257Z,5.27
2018-12-06T20:18:00.274Z,4.17
2018-12-06T20:20:29.983Z,4.73
2018-12-06T20:23:00.174Z,4.80
2018-12-06T20:25:30.332Z,5.70
2018-12-06T20:28:00.528Z,6.37
2018-12-06T20:30:30.681Z,6.53
2018-12-06T20:33:00.561Z,6.37
2018-12-06T20:35:30.691Z,4.97
2018-12-06T20:38:00.564Z,5.57
2018-12-06T20:40:29.771Z,6.03
2018-12-06T20:42:59.944Z,5.97
2018-12-06T20:45:29.500Z,5.87
2018-12-06T20:47:59.848Z,6.13
2018-12-06T20:50:29.792Z,5.97
2018-12-06T20:52:59.743Z,6.13
2018-12-06T20:55:29.860Z,6.03
2018-12-06T20:58:00.103Z,6.23
2018-12-06T21:00:30.084Z,6.47
2018-12-06T21:03:00.705Z,5.90
2018-12-06T21:05:30.893Z,6.83
2018-12-06T21:08:00.655Z,6.17
2018-12-06T21:10:30.510Z,6.33
2018-12-06T21:13:01.631Z,6.70
2018-12-06T21:15:31.302Z,6.40
2018-12-06T21:18:01.263Z,6.47
2018-12-06T21:20:31.483Z,6.80
2018-12-06T21:23:01.371Z,6.10
2018-12-06T21:25:31.821Z,6.60
2018-12-06T21:28:02.051Z,6.77
2018-12-06T21:30:32.069Z,5.60
2018-12-06T21:33:01.971Z,6.33
2018-12-06T21:35:32.103Z,5.13
2018-12-06T21:38:01.982Z,6.47
2018-12-06T21:40:32.120Z,5.93
2018-12-06T21:43:02.261Z,6.17
2018-12-06T21:45:33.542Z,5.43
2018-12-06T21:48:03.603Z,6.83
2018-12-06T21:50:33.731Z,6.50
2018-12-06T21:53:03.723Z,6.83
2018-12-06T21:55:33.363Z,5.83
2018-12-06T21:58:03.343Z,5.33
2018-12-06T22:00:33.379Z,5.40
2018-12-06T22:03:03.253Z,4.90
2018-12-06T22:05:33.316Z,3.83
2018-12-06T22:08:03.303Z,4.60
2018-12-06T22:10:33.556Z,4.80
2018-12-06T22:13:03.292Z,4.47
2018-12-06T22:15:32.975Z,4.27
2018-12-06T22:18:02.630Z,4.40
2018-12-06T22:20:32.567Z,3.90
2018-12-06T22:23:02.468Z,4.30
2018-12-06T22:25:33.069Z,4.07
2018-12-06T22:28:02.971Z,4.90
2018-12-06T22:30:38.679Z,4.70
2018-12-06T22:33:08.407Z,5.00
2018-12-06T22:35:38.724Z,5.20
2018-12-06T22:38:08.316Z,5.27
2018-12-06T22:40:38.648Z,5.10
2018-12-06T22:43:08.468Z,5.27
2018-12-06T22:46:08.995Z,5.30
2018-12-06T22:48:39.075Z,4.93
2018-12-06T22:51:08.823Z,5.00
2018-12-06T22:53:38.946Z,5.20
2018-12-06T22:56:09.272Z,4.73
2018-12-06T22:58:39.307Z,4.70
2018-12-06T23:01:11.286Z,4.80
2018-12-06T23:03:41.676Z,5.07
2018-12-06T23:06:11.852Z,4.67
2018-12-06T23:08:42.013Z,5.90
2018-12-06T23:11:12.138Z,4.63
2018-12-06T23:13:43.031Z,4.70
2018-12-06T23:16:12.967Z,5.00
2018-12-06T23:18:43.715Z,3.97
2018-12-06T23:21:13.659Z,4.00
2018-12-06T23:23:43.531Z,4.47
2018-12-06T23:26:13.385Z,5.80
2018-12-06T23:28:42.735Z,3.80
2018-12-06T23:31:12.287Z,4.13
2018-12-06T23:33:42.435Z,3.90
2018-12-06T23:36:12.369Z,4.63
2018-12-06T23:38:42.233Z,4.40
2018-12-06T23:41:12.259Z,4.17
2018-12-06T23:43:42.712Z,3.80
2018-12-06T23:46:12.809Z,4.63
2018-12-06T23:48:42.123Z,5.30
2018-12-06T23:51:22.273Z,4.00
2018-12-06T23:53:52.211Z,4.10
2018-12-06T23:56:22.356Z,4.13
2018-12-06T23:58:52.109Z,4.40
